Time;durP1;ratioP1;P1;durP2;ratioP2;P2;SDS_P1;SDS_P2;PMS_P1;PMS_P2;Temp;Humidity;BMP_temperature;BMP_pressure;BME280_temperature;BME280_humidity;BME280_pressure;Samples;Min_cycle;Max_cycle;Signal;HPM_P1;HPM_P2
2021/09/21 00:01:41;;;;;;;;;;;;;;;;;;5013188;28;20016;-69
2021/09/21 00:04:06;;;;;;;;;;;;;;;;;;5013145;28;19920;-70
2021/09/21 00:06:32;;;;;;;;;;;;;;;;;;5015795;28;19918;-68
2021/09/21 00:08:57;;;;;;;;;;;;;;;;;;5016949;28;19925;-68
2021/09/21 00:11:22;;;;;;;;;;;;;;;;;;5018940;28;20457;-69
2021/09/21 00:13:47;;;;;;;;;;;;;;;;;;5018375;28;20397;-69
2021/09/21 00:16:13;;;;;;;;;;;;;;;;;;5018537;28;20381;-70
2021/09/21 00:18:38;;;;;;;;;;;;;;;;;;5017761;28;20418;-70
2021/09/21 00:21:05;;;;;;;;;;;;;;;;;;5017886;28;19917;-70
2021/09/21 00:23:30;;;;;;;;;;;;;;;;;;5015988;28;19921;-70
2021/09/21 00:25:58;;;;;;;;;;;;;;;;;;5019542;28;19921;-69
2021/09/21 00:28:23;;;;;;;;;;;;;;;;;;5018607;28;19924;-69
2021/09/21 00:30:50;;;;;;;;;;;;;;;;;;5011034;28;20067;-69
2021/09/21 00:33:20;;;;;;;;;;;;;;;;;;5016971;28;20445;-69
2021/09/21 00:35:45;;;;;;;;;;;;;;;;;;5014965;28;19921;-69
2021/09/21 00:38:11;;;;;;;;;;;;;;;;;;5019170;28;19931;-68
2021/09/21 00:40:36;;;;;;;;;;;;;;;;;;5019530;28;20338;-69
2021/09/21 00:43:02;;;;;;;;;;;;;;;;;;5019029;28;20213;-70
2021/09/21 00:45:27;;;;;;;;;;;;;;;;;;5016238;28;19969;-68
2021/09/21 00:47:52;;;;;;;;;;;;;;;;;;5019759;28;19917;-69
2021/09/21 00:50:17;;;;;;;;;;;;;;;;;;5019452;28;19922;-70
2021/09/21 00:52:43;;;;;;;;;;;;;;;;;;5019585;28;19917;-70
2021/09/21 00:55:10;;;;;;;;;;;;;;;;;;5019299;28;19921;-69
2021/09/21 00:57:35;;;;;;;;;;;;;;;;;;5017175;28;19975;-70
2021/09/21 01:00:01;;;;;;;;;;;;;;;;;;5016309;28;20024;-69
2021/09/21 01:02:26;;;;;;;;;;;;;;;;;;5017810;28;19923;-70
2021/09/21 01:04:51;;;;;;;;;;;;;;;;;;5015439;28;19987;-69
2021/09/21 01:07:16;;;;;;;;;;;;;;;;;;5020171;28;19916;-69
2021/09/21 01:09:43;;;;;;;;;;;;;;;;;;5009877;28;19918;-69
2021/09/21 01:12:08;;;;;;;;;;;;;;;;;;5016487;28;19917;-70
2021/09/21 01:14:33;;;;;;;;;;;;;;;;;;5016305;28;19987;-69
2021/09/21 01:16:58;;;;;;;;;;;;;;;;;;5016996;28;19929;-70
2021/09/21 01:19:24;;;;;;;;;;;;;;;;;;5016909;28;19921;-70
2021/09/21 01:21:49;;;;;;;;;;;;;;;;;;5017408;28;19918;-70
2021/09/21 01:24:15;;;;;;;;;;;;;;;;;;5016138;28;19928;-69
2021/09/21 01:26:40;;;;;;;;;;;;;;;;;;5016390;28;19914;-69
2021/09/21 01:29:05;;;;;;;;;;;;;;;;;;5016282;28;19917;-69
2021/09/21 01:31:30;;;;;;;;;;;;;;;;;;5016022;28;20179;-70
2021/09/21 01:33:55;;;;;;;;;;;;;;;;;;5019611;28;19917;-69
2021/09/21 01:36:21;;;;;;;;;;;;;;;;;;5015753;28;19921;-69
2021/09/21 01:38:46;;;;;;;;;;;;;;;;;;5017831;28;20362;-69
2021/09/21 01:41:11;;;;;;;;;;;;;;;;;;5015656;28;20393;-69
2021/09/21 01:43:36;;;;;;;;;;;;;;;;;;5015113;28;19952;-70
2021/09/21 01:46:01;;;;;;;;;;;;;;;;;;5017683;28;19920;-70
2021/09/21 01:48:27;;;;;;;;;;;;;;;;;;5016740;28;19917;-71
2021/09/21 01:50:56;;;;;;;;;;;;;;;;;;5018647;28;19971;-69
2021/09/21 01:53:40;;;;;;;;;;;;;;;;;;5018728;28;20413;-69
2021/09/21 01:59:09;;;;;;;;;;;;;;;;;;5017386;28;20757;-69
2021/09/21 02:01:36;;;;;;;;;;;;;;;;;;5016637;28;20019;-69
2021/09/21 02:04:05;;;;;;;;;;;;;;;;;;5025420;28;19924;-72
2021/09/21 02:06:40;;;;;;;;;;;;;;;;;;5017658;28;20018;-69
2021/09/21 02:09:05;;;;;;;;;;;;;;;;;;5016071;28;19918;-69
2021/09/21 02:11:31;;;;;;;;;;;;;;;;;;5018802;28;19917;-69
2021/09/21 02:13:57;;;;;;;;;;;;;;;;;;5014827;28;19917;-69
2021/09/21 02:16:22;;;;;;;;;;;;;;;;;;5016908;28;19921;-69
2021/09/21 02:18:47;;;;;;;;;;;;;;;;;;5013749;28;20138;-71
2021/09/21 02:21:13;;;;;;;;;;;;;;;;;;5017312;28;19917;-70
2021/09/21 02:23:38;;;;;;;;;;;;;;;;;;5015111;28;20131;-69
2021/09/21 02:26:03;;;;;;;;;;;;;;;;;;5017273;28;19917;-69
2021/09/21 02:28:28;;;;;;;;;;;;;;;;;;5015665;28;19914;-72
2021/09/21 02:30:54;;;;;;;;;;;;;;;;;;5015145;28;19917;-70
2021/09/21 02:33:19;;;;;;;;;;;;;;;;;;5016314;28;19966;-69
2021/09/21 02:35:44;;;;;;;;;;;;;;;;;;5015430;28;19928;-71
2021/09/21 02:38:09;;;;;;;;;;;;;;;;;;5018072;28;19918;-69
2021/09/21 02:40:34;;;;;;;;;;;;;;;;;;5014544;28;19924;-70
2021/09/21 02:43:00;;;;;;;;;;;;;;;;;;5016072;28;19918;-69
2021/09/21 02:45:25;;;;;;;;;;;;;;;;;;5006271;28;20255;-69
2021/09/21 02:47:50;;;;;;;;;;;;;;;;;;5031864;28;20342;-70
2021/09/21 02:50:16;;;;;;;;;;;;;;;;;;5016124;28;19944;-70
2021/09/21 02:52:43;;;;;;;;;;;;;;;;;;5017430;28;19929;-69
2021/09/21 02:55:08;;;;;;;;;;;;;;;;;;5015185;28;19998;-70
2021/09/21 02:57:34;;;;;;;;;;;;;;;;;;5014485;28;20317;-68
2021/09/21 02:59:59;;;;;;;;;;;;;;;;;;5016439;28;20272;-69
2021/09/21 03:02:25;;;;;;;;;;;;;;;;;;5016556;28;20289;-68
2021/09/21 03:04:54;;;;;;;;;;;;;;;;;;5016170;28;20279;-69
2021/09/21 03:07:28;;;;;;;;;;;;;;;;;;5015766;28;20313;-68
2021/09/21 03:10:08;;;;;;;;;;;;;;;;;;5012366;28;19961;-69
2021/09/21 03:17:48;;;;;;;;;;;;;;;;;;5016008;28;19921;-69
2021/09/21 03:20:13;;;;;;;;;;;;;;;;;;5017525;28;19963;-70
2021/09/21 03:22:38;;;;;;;;;;;;;;;;;;5015634;28;19917;-68
2021/09/21 03:25:04;;;;;;;;;;;;;;;;;;5020570;28;19913;-68
2021/09/21 03:27:29;;;;;;;;;;;;;;;;;;5015656;28;19917;-71
2021/09/21 03:29:54;;;;;;;;;;;;;;;;;;5015613;28;19913;-69
2021/09/21 03:32:19;;;;;;;;;;;;;;;;;;5017356;28;19917;-69
2021/09/21 03:34:44;;;;;;;;;;;;;;;;;;5015919;28;19916;-68
2021/09/21 03:37:10;;;;;;;;;;;;;;;;;;5017586;28;20028;-68
2021/09/21 03:39:35;;;;;;;;;;;;;;;;;;5022536;28;19924;-68
2021/09/21 03:42:00;;;;;;;;;;;;;;;;;;5014895;28;19960;-69
2021/09/21 03:44:28;;;;;;;;;;;;;;;;;;5013654;28;20012;-70
2021/09/21 03:46:54;;;;;;;;;;;;;;;;;;5014332;28;19917;-70
2021/09/21 03:49:19;;;;;;;;;;;;;;;;;;5016876;28;19924;-69
2021/09/21 03:51:44;;;;;;;;;;;;;;;;;;5013119;28;19920;-68
2021/09/21 03:54:10;;;;;;;;;;;;;;;;;;5014869;28;20151;-69
2021/09/21 03:56:35;;;;;;;;;;;;;;;;;;5013848;28;19921;-68
2021/09/21 03:59:00;;;;;;;;;;;;;;;;;;5013369;28;19929;-69
2021/09/21 04:01:25;;;;;;;;;;;;;;;;;;5015813;28;19925;-68
2021/09/21 04:03:51;;;;;;;;;;;;;;;;;;5016515;28;19920;-68
2021/09/21 04:06:16;;;;;;;;;;;;;;;;;;5015521;28;19910;-70
2021/09/21 04:08:41;;;;;;;;;;;;;;;;;;5015034;28;19969;-68
2021/09/21 04:11:06;;;;;;;;;;;;;;;;;;5020308;28;19960;-70
2021/09/21 04:13:31;;;;;;;;;;;;;;;;;;5016747;28;20286;-69
2021/09/21 04:15:57;;;;;;;;;;;;;;;;;;4998032;28;19922;-71
2021/09/21 04:18:22;;;;;;;;;;;;;;;;;;5015010;28;20290;-71
2021/09/21 04:20:47;;;;;;;;;;;;;;;;;;5017208;28;19913;-68
2021/09/21 04:23:12;;;;;;;;;;;;;;;;;;5013778;28;19920;-69
2021/09/21 04:25:38;;;;;;;;;;;;;;;;;;5015364;28;19922;-69
2021/09/21 04:28:03;;;;;;;;;;;;;;;;;;5014229;28;19921;-69
2021/09/21 04:30:28;;;;;;;;;;;;;;;;;;5013305;28;19936;-68
2021/09/21 04:32:53;;;;;;;;;;;;;;;;;;5014309;28;19917;-69
2021/09/21 04:35:18;;;;;;;;;;;;;;;;;;5016537;28;19944;-70
2021/09/21 04:37:44;;;;;;;;;;;;;;;;;;5014827;28;20293;-69
2021/09/21 04:40:09;;;;;;;;;;;;;;;;;;5015220;28;19917;-69
2021/09/21 04:42:34;;;;;;;;;;;;;;;;;;5012727;28;20004;-69
2021/09/21 04:44:59;;;;;;;;;;;;;;;;;;5013347;28;19917;-68
2021/09/21 04:47:25;;;;;;;;;;;;;;;;;;5013965;28;20210;-68
2021/09/21 04:49:50;;;;;;;;;;;;;;;;;;5012137;28;19917;-69
2021/09/21 04:52:15;;;;;;;;;;;;;;;;;;5013775;28;19921;-68
2021/09/21 04:54:40;;;;;;;;;;;;;;;;;;5015277;28;19917;-68
2021/09/21 04:57:06;;;;;;;;;;;;;;;;;;5017969;28;19924;-68
2021/09/21 04:59:31;;;;;;;;;;;;;;;;;;5019799;28;20438;-69
2021/09/21 05:01:56;;;;;;;;;;;;;;;;;;5025831;28;19917;-68
2021/09/21 05:04:21;;;;;;;;;;;;;;;;;;5018489;28;19921;-70
2021/09/21 05:06:46;;;;;;;;;;;;;;;;;;5017611;28;19924;-68
2021/09/21 05:09:13;;;;;;;;;;;;;;;;;;5016671;28;20418;-69
2021/09/21 05:11:38;;;;;;;;;;;;;;;;;;5016346;28;19924;-68
2021/09/21 05:14:03;;;;;;;;;;;;;;;;;;5018561;28;19917;-69
2021/09/21 05:16:29;;;;;;;;;;;;;;;;;;5017883;28;19921;-69
2021/09/21 05:18:54;;;;;;;;;;;;;;;;;;5017051;28;19928;-69
2021/09/21 05:21:19;;;;;;;;;;;;;;;;;;5017209;28;19920;-70
2021/09/21 05:23:44;;;;;;;;;;;;;;;;;;5018200;28;19940;-69
2021/09/21 05:26:10;;;;;;;;;;;;;;;;;;5017618;28;20391;-69
2021/09/21 05:28:35;;;;;;;;;;;;;;;;;;5015105;28;19935;-69
2021/09/21 05:31:00;;;;;;;;;;;;;;;;;;5020673;28;20390;-69
2021/09/21 05:33:26;;;;;;;;;;;;;;;;;;5015767;28;20430;-69
2021/09/21 05:35:51;;;;;;;;;;;;;;;;;;5016687;28;20384;-69
2021/09/21 05:38:16;;;;;;;;;;;;;;;;;;5018409;28;19964;-69
2021/09/21 05:40:42;;;;;;;;;;;;;;;;;;5016999;28;20489;-68
2021/09/21 05:43:07;;;;;;;;;;;;;;;;;;5018957;28;19966;-69
2021/09/21 05:45:33;;;;;;;;;;;;;;;;;;5013154;28;19921;-69
2021/09/21 05:47:58;;;;;;;;;;;;;;;;;;5016362;28;19918;-70
2021/09/21 05:50:23;;;;;;;;;;;;;;;;;;5004613;28;20398;-70
2021/09/21 05:52:48;;;;;;;;;;;;;;;;;;5017064;28;19928;-71
2021/09/21 05:55:14;;;;;;;;;;;;;;;;;;5017463;28;19928;-69
2021/09/21 05:57:40;;;;;;;;;;;;;;;;;;5015010;28;19932;-69
2021/09/21 06:00:05;;;;;;;;;;;;;;;;;;5016150;28;20391;-70
2021/09/21 06:02:37;;;;;;;;;;;;;;;;;;5015925;28;20297;-69
2021/09/21 06:05:03;;;;;;;;;;;;;;;;;;5015658;28;19918;-70
2021/09/21 06:07:28;;;;;;;;;;;;;;;;;;5015544;28;20375;-68
2021/09/21 06:09:53;;;;;;;;;;;;;;;;;;5009889;28;19921;-70
2021/09/21 06:12:18;;;;;;;;;;;;;;;;;;5015320;28;20235;-70
2021/09/21 06:14:43;;;;;;;;;;;;;;;;;;5015985;28;19921;-69
2021/09/21 06:17:09;;;;;;;;;;;;;;;;;;5012624;28;19921;-71
2021/09/21 06:19:34;;;;;;;;;;;;;;;;;;5000560;28;19923;-70
2021/09/21 06:21:59;;;;;;;;;;;;;;;;;;5015512;28;20381;-69
2021/09/21 06:24:24;;;;;;;;;;;;;;;;;;5015470;28;20026;-68
2021/09/21 06:26:50;;;;;;;;;;;;;;;;;;5013041;28;19929;-68
2021/09/21 06:29:15;;;;;;;;;;;;;;;;;;5012713;28;19924;-68
2021/09/21 06:31:43;;;;;;;;;;;;;;;;;;5015934;28;19917;-69
2021/09/21 06:34:08;;;;;;;;;;;;;;;;;;5017755;28;20447;-68
2021/09/21 06:36:33;;;;;;;;;;;;;;;;;;5012415;28;20304;-69
2021/09/21 06:38:59;;;;;;;;;;;;;;;;;;5015470;28;19921;-69
2021/09/21 06:41:24;;;;;;;;;;;;;;;;;;5013020;28;19936;-69
2021/09/21 06:43:49;;;;;;;;;;;;;;;;;;5011386;28;19917;-69
2021/09/21 06:46:14;;;;;;;;;;;;;;;;;;5013854;28;19917;-68
2021/09/21 06:48:40;;;;;;;;;;;;;;;;;;5009585;28;20000;-68
2021/09/21 06:51:05;;;;;;;;;;;;;;;;;;5015897;28;19967;-69
2021/09/21 06:53:30;;;;;;;;;;;;;;;;;;5013553;28;20110;-68
2021/09/21 06:55:55;;;;;;;;;;;;;;;;;;5016441;28;19922;-68
2021/09/21 06:58:20;;;;;;;;;;;;;;;;;;5013199;28;19925;-68
2021/09/21 07:00:46;;;;;;;;;;;;;;;;;;5012742;28;19924;-69
2021/09/21 07:03:12;;;;;;;;;;;;;;;;;;5013465;28;20547;-68
2021/09/21 07:05:37;;;;;;;;;;;;;;;;;;5013849;28;19917;-68
2021/09/21 07:08:02;;;;;;;;;;;;;;;;;;5017240;28;19918;-71
2021/09/21 07:10:27;;;;;;;;;;;;;;;;;;5011113;28;19917;-69
2021/09/21 07:12:52;;;;;;;;;;;;;;;;;;5002312;28;19983;-69
2021/09/21 07:15:22;;;;;;;;;;;;;;;;;;4998095;28;20402;-69
2021/09/21 07:17:47;;;;;;;;;;;;;;;;;;5014611;28;19921;-69
2021/09/21 07:20:12;;;;;;;;;;;;;;;;;;5013046;28;19928;-69
2021/09/21 07:22:38;;;;;;;;;;;;;;;;;;5012611;28;20339;-70
2021/09/21 07:25:05;;;;;;;;;;;;;;;;;;4998576;28;20379;-70
2021/09/21 07:27:33;;;;;;;;;;;;;;;;;;5010298;28;20196;-69
2021/09/21 07:29:58;;;;;;;;;;;;;;;;;;5013504;28;20444;-69
2021/09/21 07:32:23;;;;;;;;;;;;;;;;;;5011077;28;19913;-69
2021/09/21 07:34:49;;;;;;;;;;;;;;;;;;5012981;28;19947;-69
2021/09/21 07:37:14;;;;;;;;;;;;;;;;;;5012184;28;19956;-70
2021/09/21 07:39:41;;;;;;;;;;;;;;;;;;5010212;28;19924;-69
2021/09/21 07:42:07;;;;;;;;;;;;;;;;;;5012662;28;19917;-70
2021/09/21 07:44:32;;;;;;;;;;;;;;;;;;5014761;28;20011;-69
2021/09/21 07:46:58;;;;;;;;;;;;;;;;;;5013288;28;19917;-70
2021/09/21 07:49:23;;;;;;;;;;;;;;;;;;5008981;28;20233;-70
2021/09/21 07:51:48;;;;;;;;;;;;;;;;;;5042037;28;19951;-69
2021/09/21 07:54:13;;;;;;;;;;;;;;;;;;5034088;28;20319;-69
2021/09/21 07:56:39;;;;;;;;;;;;;;;;;;5048427;28;19930;-70
2021/09/21 07:59:05;;;;;;;;;;;;;;;;;;5022492;28;19973;-69
2021/09/21 08:01:31;;;;;;;;;;;;;;;;;;4942248;28;20398;-69
2021/09/21 08:03:56;;;;;;;;;;;;;;;;;;4877861;29;19931;-69
2021/09/21 08:06:22;;;;;;;;;;;;;;;;;;4894420;29;20393;-69
2021/09/21 08:08:47;;;;;;;;;;;;;;;;;;4796445;29;20048;-69
2021/09/21 08:11:12;;;;;;;;;;;;;;;;;;4703627;29;19932;-69
2021/09/21 08:13:40;;;;;;;;;;;;;;;;;;4582635;30;19977;-69
2021/09/21 08:18:58;;;;;;;;;;;;;;;;;;5170213;27;20343;-68
2021/09/21 08:21:26;;;;;;;;;;;;;;;;;;5164955;27;19923;-68
2021/09/21 08:23:51;;;;;;;;;;;;;;;;;;5128517;27;19923;-67
2021/09/21 08:26:16;;;;;;;;;;;;;;;;;;5108851;27;19931;-68
2021/09/21 08:28:42;;;;;;;;;;;;;;;;;;5047555;28;19932;-68
2021/09/21 08:31:07;;;;;;;;;;;;;;;;;;4961272;28;19927;-67
2021/09/21 08:33:32;;;;;;;;;;;;;;;;;;4868782;29;20236;-68
2021/09/21 08:35:57;;;;;;;;;;;;;;;;;;4796294;29;19935;-68
2021/09/21 08:38:23;;;;;;;;;;;;;;;;;;4714261;30;19982;-68
2021/09/21 08:40:48;;;;;;;;;;;;;;;;;;4612847;30;20033;-70
2021/09/21 08:44:44;;;;;;;;;;;;;;;;;;5171319;27;20423;-70
2021/09/21 08:47:09;;;;;;;;;;;;;;;;;;5168317;27;20034;-69
2021/09/21 08:49:35;;;;;;;;;;;;;;;;;;5168888;27;19923;-70
2021/09/21 08:52:00;;;;;;;;;;;;;;;;;;5166189;27;19971;-70
2021/09/21 08:54:25;;;;;;;;;;;;;;;;;;5093169;27;19933;-69
2021/09/21 08:56:50;;;;;;;;;;;;;;;;;;4955773;28;19926;-71
2021/09/21 08:59:16;;;;;;;;;;;;;;;;;;4816749;29;1964103;-70
2021/09/21 09:01:41;;;;;;;;;;;;;;;;;;4676492;29;20758;-69
2021/09/21 09:04:06;;;;;;;;;;;;;;;;;;4636103;30;19932;-71
2021/09/21 09:06:31;;;;;;;;;;;;;;;;;;4651369;30;19935;-69
2021/09/21 09:08:58;;;;;;;;;;;;;;;;;;4630884;30;20030;-71
2021/09/21 09:11:23;;;;;;;;;;;;;;;;;;4636695;30;19924;-69
2021/09/21 09:13:48;;;;;;;;;;;;;;;;;;4647813;30;19925;-71
2021/09/21 09:16:14;;;;;;;;;;;;;;;;;;4647626;30;19924;-70
2021/09/21 09:18:40;;;;;;;;;;;;;;;;;;4646824;30;19966;-70
2021/09/21 09:21:05;;;;;;;;;;;;;;;;;;4647314;30;19924;-70
2021/09/21 09:23:30;;;;;;;;;;;;;;;;;;4673806;30;19924;-69
2021/09/21 09:25:56;;;;;;;;;;;;;;;;;;4666185;30;19975;-70
2021/09/21 09:28:21;;;;;;;;;;;;;;;;;;4645465;30;20860;-69
2021/09/21 09:30:48;;;;;;;;;;;;;;;;;;4647795;30;19927;-70
2021/09/21 09:33:16;;;;;;;;;;;;;;;;;;4646997;30;19934;-70
2021/09/21 09:35:43;;;;;;;;;;;;;;;;;;4649499;30;20798;-70
2021/09/21 09:38:08;;;;;;;;;;;;;;;;;;4646395;30;19962;-71
2021/09/21 09:40:34;;;;;;;;;;;;;;;;;;4648399;30;20664;-71
2021/09/21 09:42:59;;;;;;;;;;;;;;;;;;4647917;30;19966;-69
2021/09/21 09:45:26;;;;;;;;;;;;;;;;;;4644830;30;20161;-71
2021/09/21 09:47:53;;;;;;;;;;;;;;;;;;4648061;30;20052;-70
2021/09/21 09:50:18;;;;;;;;;;;;;;;;;;4645152;30;19982;-70
2021/09/21 09:52:43;;;;;;;;;;;;;;;;;;4672084;30;20394;-70
2021/09/21 09:55:08;;;;;;;;;;;;;;;;;;4666719;30;19927;-69
2021/09/21 09:57:33;;;;;;;;;;;;;;;;;;4636563;30;19928;-69
2021/09/21 10:00:00;;;;;;;;;;;;;;;;;;4574321;30;2131086;-71
2021/09/21 10:02:25;;;;;;;;;;;;;;;;;;4671052;29;20033;-69
2021/09/21 10:04:50;;;;;;;;;;;;;;;;;;4774715;29;19947;-71
2021/09/21 10:07:15;;;;;;;;;;;;;;;;;;4762460;29;20351;-68
2021/09/21 10:09:40;;;;;;;;;;;;;;;;;;4760629;29;19997;-70
2021/09/21 10:12:06;;;;;;;;;;;;;;;;;;4759280;29;19921;-68
2021/09/21 10:14:31;;;;;;;;;;;;;;;;;;4761563;29;20914;-68
2021/09/21 10:16:56;;;;;;;;;;;;;;;;;;4759205;29;20614;-69
2021/09/21 10:19:21;;;;;;;;;;;;;;;;;;4759512;29;20305;-67
2021/09/21 10:21:47;;;;;;;;;;;;;;;;;;4776026;29;20010;-67
2021/09/21 10:24:12;;;;;;;;;;;;;;;;;;4759076;29;19933;-68
2021/09/21 10:26:37;;;;;;;;;;;;;;;;;;4760420;29;20157;-68
2021/09/21 10:29:02;;;;;;;;;;;;;;;;;;4761223;29;20002;-69
2021/09/21 10:31:28;;;;;;;;;;;;;;;;;;4760545;29;20469;-69
2021/09/21 10:33:53;;;;;;;;;;;;;;;;;;4775935;29;20283;-68
2021/09/21 10:36:19;;;;;;;;;;;;;;;;;;4760260;29;20941;-69
2021/09/21 10:38:44;;;;;;;;;;;;;;;;;;4760080;29;19921;-68
2021/09/21 10:41:09;;;;;;;;;;;;;;;;;;4756958;29;20715;-68
2021/09/21 10:43:35;;;;;;;;;;;;;;;;;;4764720;29;19981;-70
2021/09/21 10:46:00;;;;;;;;;;;;;;;;;;4767920;29;19921;-69
2021/09/21 10:48:25;;;;;;;;;;;;;;;;;;4756066;29;20394;-68
2021/09/21 10:50:50;;;;;;;;;;;;;;;;;;4754057;29;19936;-72
2021/09/21 10:53:15;;;;;;;;;;;;;;;;;;4768931;29;19921;-72
2021/09/21 10:55:41;;;;;;;;;;;;;;;;;;4770143;29;20742;-72
2021/09/21 10:58:06;;;;;;;;;;;;;;;;;;4768372;29;20279;-72
2021/09/21 11:00:34;;;;;;;;;;;;;;;;;;4755885;29;20576;-71
2021/09/21 11:02:59;;;;;;;;;;;;;;;;;;4786117;29;19980;-72
2021/09/21 11:05:28;;;;;;;;;;;;;;;;;;4826338;29;19963;-70
2021/09/21 11:07:53;;;;;;;;;;;;;;;;;;4823893;29;20614;-73
2021/09/21 11:10:20;;;;;;;;;;;;;;;;;;4810249;29;20122;-71
2021/09/21 11:12:46;;;;;;;;;;;;;;;;;;4809651;29;19927;-71
2021/09/21 11:15:11;;;;;;;;;;;;;;;;;;4821520;29;20096;-72
2021/09/21 11:17:37;;;;;;;;;;;;;;;;;;4811108;29;19920;-69
2021/09/21 11:20:02;;;;;;;;;;;;;;;;;;4810354;29;19924;-72
2021/09/21 11:22:29;;;;;;;;;;;;;;;;;;4809924;29;19980;-70
2021/09/21 11:24:54;;;;;;;;;;;;;;;;;;4810773;29;20404;-70
2021/09/21 11:27:19;;;;;;;;;;;;;;;;;;4823839;29;19925;-73
2021/09/21 11:29:45;;;;;;;;;;;;;;;;;;4810725;29;20051;-71
2021/09/21 11:32:10;;;;;;;;;;;;;;;;;;4812286;29;21342;-72
2021/09/21 11:34:35;;;;;;;;;;;;;;;;;;4812285;29;21461;-72
2021/09/21 11:37:01;;;;;;;;;;;;;;;;;;4811299;29;19927;-72
2021/09/21 11:39:26;;;;;;;;;;;;;;;;;;4812502;29;20326;-73
2021/09/21 11:41:52;;;;;;;;;;;;;;;;;;4820042;29;20702;-72
2021/09/21 11:44:17;;;;;;;;;;;;;;;;;;4808902;29;20721;-70
2021/09/21 11:46:42;;;;;;;;;;;;;;;;;;4823542;29;19980;-72
2021/09/21 11:49:07;;;;;;;;;;;;;;;;;;4809839;29;19924;-71
2021/09/21 11:51:35;;;;;;;;;;;;;;;;;;4809995;29;19932;-70
2021/09/21 11:54:00;;;;;;;;;;;;;;;;;;4811115;29;20705;-73
2021/09/21 11:56:25;;;;;;;;;;;;;;;;;;4838806;29;19920;-68
2021/09/21 11:58:50;;;;;;;;;;;;;;;;;;4866130;29;19923;-71
2021/09/21 12:01:16;;;;;;;;;;;;;;;;;;4874945;29;19924;-70
2021/09/21 12:03:41;;;;;;;;;;;;;;;;;;4864813;29;19967;-69
2021/09/21 12:06:06;;;;;;;;;;;;;;;;;;4895244;29;19927;-69
2021/09/21 12:08:31;;;;;;;;;;;;;;;;;;4894069;29;19931;-73
2021/09/21 12:10:57;;;;;;;;;;;;;;;;;;4896161;29;19919;-69
2021/09/21 12:13:22;;;;;;;;;;;;;;;;;;4894362;29;20408;-69
2021/09/21 12:15:47;;;;;;;;;;;;;;;;;;4895503;29;20072;-68
2021/09/21 12:18:12;;;;;;;;;;;;;;;;;;4895570;29;19919;-67
2021/09/21 12:20:40;;;;;;;;;;;;;;;;;;4896555;29;19930;-66
2021/09/21 12:23:05;;;;;;;;;;;;;;;;;;4894905;29;19923;-69
2021/09/21 12:25:35;;;;;;;;;;;;;;;;;;4893297;29;19963;-69
2021/09/21 12:28:00;;;;;;;;;;;;;;;;;;4895975;29;20377;-68
2021/09/21 12:30:25;;;;;;;;;;;;;;;;;;4897111;29;19922;-68
2021/09/21 12:32:51;;;;;;;;;;;;;;;;;;4877598;29;19978;-68
2021/09/21 12:35:16;;;;;;;;;;;;;;;;;;4897396;29;20466;-67
2021/09/21 12:37:41;;;;;;;;;;;;;;;;;;4899502;29;20381;-68
2021/09/21 12:40:06;;;;;;;;;;;;;;;;;;4898845;29;20539;-68
2021/09/21 12:42:31;;;;;;;;;;;;;;;;;;4916436;29;19916;-69
2021/09/21 12:45:00;;;;;;;;;;;;;;;;;;4898651;29;19967;-67
2021/09/21 12:47:25;;;;;;;;;;;;;;;;;;4897607;29;20054;-68
2021/09/21 12:49:50;;;;;;;;;;;;;;;;;;4912607;29;20002;-69
2021/09/21 12:52:15;;;;;;;;;;;;;;;;;;4896007;29;20031;-67
2021/09/21 12:54:40;;;;;;;;;;;;;;;;;;4894365;29;19915;-67
2021/09/21 12:57:06;;;;;;;;;;;;;;;;;;4894545;29;20332;-70
2021/09/21 12:59:31;;;;;;;;;;;;;;;;;;4877126;29;20284;-69
2021/09/21 13:01:56;;;;;;;;;;;;;;;;;;4945201;28;19961;-69
2021/09/21 13:04:23;;;;;;;;;;;;;;;;;;4942502;28;20388;-72
2021/09/21 13:06:50;;;;;;;;;;;;;;;;;;4931704;29;20091;-71
2021/09/21 13:09:15;;;;;;;;;;;;;;;;;;4932187;29;19918;-71
2021/09/21 13:11:40;;;;;;;;;;;;;;;;;;4917158;29;19947;-73
2021/09/21 13:14:05;;;;;;;;;;;;;;;;;;4933968;29;19923;-71
2021/09/21 13:16:31;;;;;;;;;;;;;;;;;;4935005;29;19926;-71
2021/09/21 13:18:57;;;;;;;;;;;;;;;;;;4932662;29;19919;-70
2021/09/21 13:21:22;;;;;;;;;;;;;;;;;;4921026;29;19946;-70
2021/09/21 13:23:47;;;;;;;;;;;;;;;;;;4935908;29;20037;-70
2021/09/21 13:26:12;;;;;;;;;;;;;;;;;;4932977;29;19915;-72
2021/09/21 13:28:38;;;;;;;;;;;;;;;;;;4938741;29;20324;-70
2021/09/21 13:31:03;;;;;;;;;;;;;;;;;;4958307;28;20391;-70
2021/09/21 13:33:28;;;;;;;;;;;;;;;;;;4929331;29;20364;-70
2021/09/21 13:35:53;;;;;;;;;;;;;;;;;;4938562;29;20711;-70
2021/09/21 13:38:18;;;;;;;;;;;;;;;;;;4937351;29;20391;-70
2021/09/21 13:40:45;;;;;;;;;;;;;;;;;;4935244;29;20468;-70
2021/09/21 13:43:11;;;;;;;;;;;;;;;;;;4936712;29;19931;-70
2021/09/21 13:45:36;;;;;;;;;;;;;;;;;;4954474;28;19945;-70
2021/09/21 13:48:02;;;;;;;;;;;;;;;;;;4936226;29;19962;-70
2021/09/21 13:50:27;;;;;;;;;;;;;;;;;;4938563;29;19977;-71
2021/09/21 13:52:52;;;;;;;;;;;;;;;;;;4935662;29;20279;-70
2021/09/21 13:55:17;;;;;;;;;;;;;;;;;;4956817;28;20304;-70
2021/09/21 13:57:42;;;;;;;;;;;;;;;;;;4937340;29;19926;-70
2021/09/21 14:00:08;;;;;;;;;;;;;;;;;;4940211;28;19922;-70
2021/09/21 14:02:37;;;;;;;;;;;;;;;;;;4996496;28;20000;-70
2021/09/21 14:05:02;;;;;;;;;;;;;;;;;;4989585;28;20264;-70
2021/09/21 14:07:27;;;;;;;;;;;;;;;;;;4978378;28;19917;-70
2021/09/21 14:09:53;;;;;;;;;;;;;;;;;;4988954;28;19979;-70
2021/09/21 14:12:18;;;;;;;;;;;;;;;;;;4989416;28;19924;-71
2021/09/21 14:14:43;;;;;;;;;;;;;;;;;;4988993;28;19967;-70
2021/09/21 14:17:08;;;;;;;;;;;;;;;;;;4988067;28;19995;-70
2021/09/21 14:19:34;;;;;;;;;;;;;;;;;;4989007;28;20283;-72
2021/09/21 14:21:59;;;;;;;;;;;;;;;;;;4956523;28;20290;-70
2021/09/21 14:24:28;;;;;;;;;;;;;;;;;;4989026;28;20415;-70
2021/09/21 14:26:54;;;;;;;;;;;;;;;;;;4989114;28;19917;-70
2021/09/21 14:29:19;;;;;;;;;;;;;;;;;;4988508;28;19933;-70
2021/09/21 14:31:44;;;;;;;;;;;;;;;;;;4988569;28;19918;-70
2021/09/21 14:34:11;;;;;;;;;;;;;;;;;;4989043;28;19965;-69
2021/09/21 14:36:39;;;;;;;;;;;;;;;;;;4989645;28;19960;-70
2021/09/21 14:39:04;;;;;;;;;;;;;;;;;;4988760;28;19973;-70
2021/09/21 14:41:30;;;;;;;;;;;;;;;;;;4977664;28;19922;-70
2021/09/21 14:43:55;;;;;;;;;;;;;;;;;;4971851;28;19984;-70
2021/09/21 14:46:22;;;;;;;;;;;;;;;;;;4988005;28;20389;-69
2021/09/21 14:48:48;;;;;;;;;;;;;;;;;;4987745;28;19914;-70
2021/09/21 14:51:13;;;;;;;;;;;;;;;;;;4988617;28;20283;-69
2021/09/21 14:53:38;;;;;;;;;;;;;;;;;;4989448;28;19918;-71
2021/09/21 14:56:03;;;;;;;;;;;;;;;;;;4987896;28;20402;-69
2021/09/21 14:58:29;;;;;;;;;;;;;;;;;;4992145;28;19964;-70
2021/09/21 15:00:54;;;;;;;;;;;;;;;;;;4994692;28;19952;-71
2021/09/21 15:03:20;;;;;;;;;;;;;;;;;;5007841;28;19932;-69
2021/09/21 15:05:45;;;;;;;;;;;;;;;;;;4987853;28;20291;-69
2021/09/21 15:08:10;;;;;;;;;;;;;;;;;;4991132;28;19920;-68
2021/09/21 15:10:35;;;;;;;;;;;;;;;;;;4990791;28;19920;-69
2021/09/21 15:13:01;;;;;;;;;;;;;;;;;;4991186;28;20314;-68
2021/09/21 15:15:26;;;;;;;;;;;;;;;;;;4989750;28;19918;-68
2021/09/21 15:17:51;;;;;;;;;;;;;;;;;;4991430;28;19909;-69
2021/09/21 15:20:16;;;;;;;;;;;;;;;;;;4988463;28;19918;-69
2021/09/21 15:22:42;;;;;;;;;;;;;;;;;;4991191;28;20048;-66
2021/09/21 15:25:08;;;;;;;;;;;;;;;;;;4989740;28;19913;-67
2021/09/21 15:27:33;;;;;;;;;;;;;;;;;;4990764;28;19921;-67
2021/09/21 15:29:58;;;;;;;;;;;;;;;;;;4990498;28;19918;-69
2021/09/21 15:32:23;;;;;;;;;;;;;;;;;;4990805;28;19949;-68
2021/09/21 15:34:49;;;;;;;;;;;;;;;;;;4990893;28;20029;-67
2021/09/21 15:37:14;;;;;;;;;;;;;;;;;;4991023;28;20267;-68
2021/09/21 15:39:40;;;;;;;;;;;;;;;;;;4990484;28;20334;-68
2021/09/21 15:42:05;;;;;;;;;;;;;;;;;;4989287;28;20013;-68
2021/09/21 15:44:30;;;;;;;;;;;;;;;;;;4989406;28;19936;-68
2021/09/21 15:46:56;;;;;;;;;;;;;;;;;;4989357;28;19924;-68
2021/09/21 15:49:21;;;;;;;;;;;;;;;;;;4989856;28;20330;-68
2021/09/21 15:51:46;;;;;;;;;;;;;;;;;;4990578;28;20001;-67
2021/09/21 15:54:11;;;;;;;;;;;;;;;;;;4990453;28;19924;-68
2021/09/21 15:56:36;;;;;;;;;;;;;;;;;;4990310;28;19918;-68
2021/09/21 15:59:02;;;;;;;;;;;;;;;;;;4989059;28;19913;-69
2021/09/21 16:01:27;;;;;;;;;;;;;;;;;;4981990;28;20052;-67
2021/09/21 16:03:52;;;;;;;;;;;;;;;;;;4953618;28;19918;-68
2021/09/21 16:06:17;;;;;;;;;;;;;;;;;;4970567;28;20009;-67
2021/09/21 16:08:43;;;;;;;;;;;;;;;;;;4967514;28;19998;-67
2021/09/21 16:11:08;;;;;;;;;;;;;;;;;;4968633;28;19910;-68
2021/09/21 16:13:33;;;;;;;;;;;;;;;;;;4957803;28;20008;-68
2021/09/21 16:15:58;;;;;;;;;;;;;;;;;;4966843;28;19972;-68
2021/09/21 16:18:23;;;;;;;;;;;;;;;;;;4959900;28;19914;-68
2021/09/21 16:20:49;;;;;;;;;;;;;;;;;;4968162;28;20004;-68
2021/09/21 16:23:14;;;;;;;;;;;;;;;;;;4966488;28;20394;-69
2021/09/21 16:25:39;;;;;;;;;;;;;;;;;;4941534;28;19918;-68
2021/09/21 16:28:04;;;;;;;;;;;;;;;;;;4963492;28;19925;-69
2021/09/21 16:30:31;;;;;;;;;;;;;;;;;;4967489;28;19918;-67
2021/09/21 16:32:57;;;;;;;;;;;;;;;;;;4954216;28;19965;-68
2021/09/21 16:35:22;;;;;;;;;;;;;;;;;;4936619;28;20348;-68
2021/09/21 16:37:47;;;;;;;;;;;;;;;;;;4951695;28;19921;-68
2021/09/21 16:40:12;;;;;;;;;;;;;;;;;;4967531;28;19918;-67
2021/09/21 16:42:38;;;;;;;;;;;;;;;;;;4962722;28;19997;-69
2021/09/21 16:45:03;;;;;;;;;;;;;;;;;;4967920;28;19915;-69
2021/09/21 16:47:28;;;;;;;;;;;;;;;;;;4968803;28;19932;-68